createdAt,value
2018-11-02T00:01:06.794Z,96152.61
2018-11-02T00:03:33.478Z,96150.45
2018-11-02T00:06:00.147Z,96146.91
2018-11-02T00:08:26.820Z,96140.81
2018-11-02T00:10:53.543Z,96136.92
2018-11-02T00:13:20.181Z,96140.19
2018-11-02T00:15:46.888Z,96146.14
2018-11-02T00:18:13.584Z,96148.16
2018-11-02T00:20:40.261Z,96137.41
2018-11-02T00:23:06.866Z,96131.08
2018-11-02T00:25:33.560Z,96137.90
2018-11-02T00:28:00.256Z,96134.25
2018-11-02T00:30:26.927Z,96136.89
2018-11-02T00:32:53.606Z,96132.99
2018-11-02T00:35:20.382Z,96141.83
2018-11-02T00:37:47.176Z,96137.90
2018-11-02T00:40:13.808Z,96132.86
2018-11-02T00:42:40.539Z,96127.78
2018-11-02T00:45:07.175Z,96138.03
2018-11-02T00:47:33.968Z,96131.08
2018-11-02T00:50:00.761Z,96127.53
2018-11-02T00:52:30.690Z,96127.43
2018-11-02T00:54:57.480Z,96136.89
2018-11-02T00:57:24.201Z,96127.15
2018-11-02T00:59:50.910Z,96126.00
2018-11-02T01:02:17.596Z,96124.23
2018-11-02T01:04:44.756Z,96116.27
2018-11-02T01:07:11.483Z,96117.41
2018-11-02T01:09:38.124Z,96111.95
2018-11-02T01:12:04.948Z,96111.23
2018-11-02T01:14:31.625Z,96103.75
2018-11-02T01:17:01.364Z,96108.06
2018-11-02T01:19:28.037Z,96096.63
2018-11-02T01:21:54.779Z,96098.02
2018-11-02T01:24:21.416Z,96097.16
2018-11-02T01:26:48.120Z,96096.39
2018-11-02T01:29:14.794Z,96096.63
2018-11-02T01:31:41.569Z,96097.16
2018-11-02T01:34:08.219Z,96107.38
2018-11-02T01:36:34.901Z,96102.44
2018-11-02T01:39:02.874Z,96104.73
2018-11-02T01:41:28.328Z,96107.38
2018-11-02T01:43:54.973Z,96106.23
2018-11-02T01:46:21.601Z,96109.15
2018-11-02T01:48:48.407Z,96105.98
2018-11-02T01:51:15.059Z,96113.42
2018-11-02T01:53:41.753Z,96110.41
2018-11-02T01:56:08.467Z,96108.91
2018-11-02T01:58:35.115Z,96111.03
2018-11-02T02:01:01.839Z,96103.06
2018-11-02T02:03:28.573Z,96096.39
2018-11-02T02:05:55.243Z,96100.91
2018-11-02T02:08:23.309Z,96106.47
2018-11-02T02:10:48.584Z,96105.84
2018-11-02T02:13:15.351Z,96101.92
2018-11-02T02:15:41.967Z,96108.25
2018-11-02T02:18:08.653Z,96103.45
2018-11-02T02:20:35.305Z,96102.69
2018-11-02T02:23:01.990Z,96106.72
2018-11-02T02:25:28.682Z,96111.03
2018-11-02T02:28:00.266Z,96120.90
2018-11-02T02:30:27.017Z,96118.50
2018-11-02T02:32:53.810Z,96126.70
2018-11-02T02:35:20.766Z,96124.17
2018-11-02T02:37:47.385Z,96123.30
2018-11-02T02:40:14.086Z,96126.56
2018-11-02T02:42:40.883Z,96131.75
2018-11-02T02:45:07.556Z,96133.66
2018-11-02T02:47:34.345Z,96130.88
2018-11-02T02:50:01.042Z,96128.72
2018-11-02T02:52:27.755Z,96124.03
2018-11-02T02:54:55.807Z,96127.95
2018-11-02T02:57:21.266Z,96127.95
2018-11-02T02:59:47.902Z,96127.81
2018-11-02T03:02:14.685Z,96119.72
2018-11-02T03:04:41.346Z,96114.43
2018-11-02T03:07:07.998Z,96124.02
2018-11-02T03:09:34.803Z,96120.48
2018-11-02T03:12:01.436Z,96125.17
2018-11-02T03:14:28.079Z,96125.66
2018-11-02T03:16:54.820Z,96125.17
2018-11-02T03:19:21.459Z,96120.23
2018-11-02T03:21:48.168Z,96115.41
2018-11-02T03:24:14.802Z,96119.84
2018-11-02T03:26:41.584Z,96117.06
2018-11-02T03:29:08.228Z,96120.72
2018-11-02T03:31:34.937Z,96112.52
2018-11-02T03:34:02.660Z,96110.60
2018-11-02T03:36:29.409Z,96113.39
2018-11-02T03:38:56.134Z,96109.98
2018-11-02T03:41:22.843Z,96110.74
2018-11-02T03:43:49.646Z,96107.82
2018-11-02T03:46:16.312Z,96111.99
2018-11-02T03:48:42.972Z,96107.82
2018-11-02T03:51:11.476Z,96103.41
2018-11-02T03:53:38.169Z,96108.06
2018-11-02T03:56:05.105Z,96118.05
2018-11-02T03:58:31.743Z,96113.11
2018-11-02T04:00:58.415Z,96116.92
2018-11-02T04:03:25.163Z,96122.34
2018-11-02T04:05:55.011Z,96118.80
2018-11-02T04:08:21.647Z,96122.72
2018-11-02T04:10:48.412Z,96121.72
2018-11-02T04:13:15.048Z,96121.69
2018-11-02T04:15:43.071Z,96123.09
2018-11-02T04:18:08.427Z,96112.23
2018-11-02T04:20:35.172Z,96107.89
2018-11-02T04:23:01.828Z,96107.56
2018-11-02T04:25:28.513Z,96109.20
2018-11-02T04:27:55.196Z,96104.18
2018-11-02T04:30:21.894Z,96104.17
2018-11-02T04:32:48.533Z,96112.68
2018-11-02T04:35:15.235Z,96114.75
2018-11-02T04:37:43.279Z,96116.77
2018-11-02T04:40:09.944Z,96121.09
2018-11-02T04:42:35.281Z,96103.66
2018-11-02T04:45:01.991Z,96112.38
2018-11-02T04:47:31.561Z,96124.55
2018-11-02T04:49:58.238Z,96125.55
2018-11-02T04:52:24.940Z,96126.79
2018-11-02T04:54:54.256Z,96127.28
2018-11-02T04:57:20.903Z,96122.71
2018-11-02T04:59:47.572Z,96114.52
2018-11-02T05:02:14.313Z,96121.48
2018-11-02T05:04:40.968Z,96120.76
2018-11-02T05:07:07.608Z,96124.41
2018-11-02T05:09:34.424Z,96134.05
2018-11-02T05:12:01.027Z,96136.19
2018-11-02T05:14:27.663Z,96136.20
2018-11-02T05:16:56.974Z,96132.66
2018-11-02T05:19:23.687Z,96127.61
2018-11-02T05:21:50.381Z,96127.63
2018-11-02T05:24:17.026Z,96132.73
2018-11-02T05:26:43.772Z,96133.61
2018-11-02T05:29:10.420Z,96143.33
2018-11-02T05:31:37.109Z,96142.08
2018-11-02T05:34:03.775Z,96147.46
2018-11-02T05:36:30.382Z,96151.48
2018-11-02T05:38:57.072Z,96149.70
2018-11-02T05:41:23.708Z,96148.56
2018-11-02T05:43:50.402Z,96149.47
2018-11-02T05:46:17.098Z,96159.05
2018-11-02T05:48:44.928Z,96166.25
2018-11-02T05:51:10.483Z,96158.92
2018-11-02T05:53:37.196Z,96158.05
2018-11-02T05:56:03.911Z,96158.04
2018-11-02T05:58:34.700Z,96164.84
2018-11-02T06:01:00.145Z,96161.69
2018-11-02T06:03:26.838Z,96167.87
2018-11-02T06:05:53.523Z,96163.47
2018-11-02T06:08:23.182Z,96164.25
2018-11-02T06:10:49.871Z,96167.22
2018-11-02T06:13:16.597Z,96166.30
2018-11-02T06:15:43.272Z,96176.03
2018-11-02T06:18:11.259Z,96169.84
2018-11-02T06:20:36.623Z,96167.17
2018-11-02T06:23:03.312Z,96165.29
2018-11-02T06:25:29.959Z,96163.39
2018-11-02T06:27:56.729Z,96165.02
2018-11-02T06:30:23.488Z,96169.14
2018-11-02T06:32:50.238Z,96171.53
2018-11-02T06:35:16.817Z,96170.67
2018-11-02T06:37:43.548Z,96175.71
2018-11-02T06:40:10.267Z,96169.19
2018-11-02T06:42:36.935Z,96174.13
2018-11-02T06:45:03.884Z,96172.45
2018-11-02T06:47:30.376Z,96169.19
2018-11-02T06:49:59.832Z,96171.06
2018-11-02T06:52:26.797Z,96169.09
2018-11-02T06:54:53.621Z,96170.80
2018-11-02T06:57:20.437Z,96167.48
2018-11-02T06:59:47.296Z,96170.20
2018-11-02T07:02:13.785Z,96178.05
2018-11-02T07:04:40.431Z,96177.29
2018-11-02T07:07:07.247Z,96181.39
2018-11-02T07:09:33.914Z,96188.63
2018-11-02T07:12:00.574Z,96194.92
2018-11-02T07:14:27.223Z,96186.44
2018-11-02T07:16:56.223Z,96193.98
2018-11-02T07:19:20.774Z,96199.47
2018-11-02T07:21:48.967Z,96194.93
2018-11-02T07:24:14.189Z,96196.22
2018-11-02T07:26:40.870Z,96200.91
2018-11-02T07:29:10.391Z,96195.45
2018-11-02T07:31:37.169Z,96190.66
2018-11-02T07:34:03.975Z,96190.55
2018-11-02T07:36:30.702Z,96183.22
2018-11-02T07:38:57.393Z,96182.86
2018-11-02T07:41:24.094Z,96184.11
2018-11-02T07:43:50.855Z,96184.50
2018-11-02T07:46:17.626Z,96178.79
2018-11-02T07:48:44.468Z,96177.02
2018-11-02T07:51:11.140Z,96176.83
2018-11-02T07:53:37.848Z,96176.42
2018-11-02T07:56:04.746Z,96167.83
2018-11-02T07:58:31.360Z,96173.41
2018-11-02T08:00:58.388Z,96177.70
2018-11-02T08:03:25.093Z,96183.41
2018-11-02T08:05:53.041Z,96180.13
2018-11-02T08:08:18.575Z,96177.97
2018-11-02T08:10:45.443Z,96184.67
2018-11-02T08:13:12.174Z,96178.99
2018-11-02T08:15:38.867Z,96176.59
2018-11-02T08:18:05.544Z,96176.88
2018-11-02T08:20:32.458Z,96170.67
2018-11-02T08:23:01.539Z,96179.28
2018-11-02T08:25:28.236Z,96176.75
2018-11-02T08:27:54.957Z,96181.33
2018-11-02T08:30:21.730Z,96177.50
2018-11-02T08:32:51.480Z,96177.14
2018-11-02T08:35:18.121Z,96179.78
2018-11-02T08:37:44.940Z,96177.25
2018-11-02T08:40:11.594Z,96174.22
2018-11-02T08:42:38.479Z,96171.94
2018-11-02T08:45:05.164Z,96168.63
2018-11-02T08:47:32.128Z,96165.58
2018-11-02T08:49:58.796Z,96160.52
2018-11-02T08:52:25.504Z,96155.28
2018-11-02T08:54:52.225Z,96145.91
2018-11-02T08:57:18.969Z,96148.59
2018-11-02T08:59:45.743Z,96146.16
2018-11-02T09:02:13.835Z,96137.91
2018-11-02T09:04:39.149Z,96143.49
2018-11-02T09:07:05.959Z,96140.45
2018-11-02T09:09:32.703Z,96140.08
2018-11-02T09:11:59.369Z,96136.39
2018-11-02T09:14:26.081Z,96132.05
2018-11-02T09:16:52.836Z,96130.92
2018-11-02T09:19:19.458Z,96127.38
2018-11-02T09:21:46.172Z,96115.97
2018-11-02T09:24:12.848Z,96116.84
2018-11-02T09:26:39.560Z,96109.23
2018-11-02T09:29:06.228Z,96099.83
2018-11-02T09:31:32.959Z,96103.16
2018-11-02T09:34:01.760Z,96100.59
2018-11-02T09:36:26.344Z,96094.77
2018-11-02T09:38:53.015Z,96098.13
2018-11-02T09:41:19.782Z,96091.69
2018-11-02T09:43:46.610Z,96087.48
2018-11-02T09:46:15.791Z,96088.38
2018-11-02T09:48:42.442Z,96085.34
2018-11-02T09:51:09.137Z,96080.57
2018-11-02T09:53:35.801Z,96067.19
2018-11-02T09:56:02.496Z,96064.31
2018-11-02T09:58:29.142Z,96057.49
2018-11-02T10:00:56.027Z,96062.02
2018-11-02T10:03:22.691Z,96055.34
2018-11-02T10:05:49.386Z,96056.20
2018-11-02T10:08:16.028Z,96041.20
2018-11-02T10:10:42.769Z,96034.88
2018-11-02T10:13:10.611Z,96031.68
2018-11-02T10:15:36.213Z,96026.30
2018-11-02T10:18:02.941Z,96022.07
2018-11-02T10:20:29.656Z,96018.98
2018-11-02T10:22:56.306Z,96018.81
2018-11-02T10:25:23.048Z,96015.34
2018-11-02T10:27:49.876Z,96013.42
2018-11-02T10:30:16.919Z,96009.56
2018-11-02T10:32:43.687Z,95998.91
2018-11-02T10:35:10.356Z,96003.22
2018-11-02T10:37:37.141Z,96001.26
2018-11-02T10:40:03.789Z,96005.45
2018-11-02T10:42:30.576Z,96002.58
2018-11-02T10:44:57.662Z,95999.19
2018-11-02T10:47:24.362Z,95997.13
2018-11-02T10:49:50.998Z,96000.05
2018-11-02T10:52:17.779Z,96008.09
2018-11-02T10:54:44.622Z,95999.92
2018-11-02T10:57:14.098Z,96002.20
2018-11-02T10:59:41.219Z,96003.45
2018-11-02T11:02:07.905Z,95993.20
2018-11-02T11:04:34.612Z,95992.25
2018-11-02T11:07:01.316Z,95984.39
2018-11-02T11:09:28.107Z,95984.80
2018-11-02T11:11:54.962Z,95987.17
2018-11-02T11:14:23.696Z,95984.77
2018-11-02T11:16:50.410Z,95990.58
2018-11-02T11:19:17.204Z,95979.95
2018-11-02T11:21:47.060Z,95978.64
2018-11-02T11:24:13.775Z,95980.05
2018-11-02T11:26:40.532Z,95979.13
2018-11-02T11:29:07.306Z,95974.66
2018-11-02T11:31:33.903Z,95966.38
2018-11-02T11:34:00.689Z,95965.45
2018-11-02T11:36:30.761Z,95967.55
2018-11-02T11:38:57.688Z,95971.89
2018-11-02T11:41:24.384Z,95959.48
2018-11-02T11:43:51.065Z,95965.58
2018-11-02T11:46:17.798Z,95957.08
2018-11-02T11:48:44.493Z,95957.36
2018-11-02T11:51:11.183Z,95949.75
2018-11-02T11:53:38.656Z,95957.45
2018-11-02T11:56:05.547Z,95956.53
2018-11-02T11:58:32.282Z,95951.74
2018-11-02T12:01:03.100Z,95950.41
2018-11-02T12:03:29.755Z,95950.22
2018-11-02T12:05:56.519Z,95944.57
2018-11-02T12:08:23.260Z,95950.16
2018-11-02T12:10:51.534Z,95950.28
2018-11-02T12:13:16.644Z,95952.22
2018-11-02T12:15:43.400Z,95944.38
2018-11-02T12:18:14.322Z,95935.69
2018-11-02T12:20:41.191Z,95939.75
2018-11-02T12:23:07.956Z,95932.45
2018-11-02T12:25:34.716Z,95928.36
2018-11-02T12:28:01.431Z,95926.97
2018-11-02T12:30:31.338Z,95935.77
2018-11-02T12:32:58.192Z,95930.48
2018-11-02T12:35:24.892Z,95929.23
2018-11-02T12:37:51.579Z,95925.80
2018-11-02T12:40:18.330Z,95921.32
2018-11-02T12:42:47.469Z,95926.36
2018-11-02T12:45:11.707Z,95923.82
2018-11-02T12:47:38.610Z,95928.86
2018-11-02T12:50:05.272Z,95923.70
2018-11-02T12:52:31.943Z,95922.00
2018-11-02T12:54:58.648Z,95923.91
2018-11-02T12:57:27.248Z,95922.17
2018-11-02T12:59:52.348Z,95920.10
2018-11-02T13:02:18.992Z,95921.41
2018-11-02T13:04:45.638Z,95913.97
2018-11-02T13:07:12.354Z,95914.69
2018-11-02T13:09:40.316Z,95915.58
2018-11-02T13:12:05.895Z,95909.47
2018-11-02T13:14:33.470Z,95906.89
2018-11-02T13:17:00.228Z,95904.86
2018-11-02T13:19:26.917Z,95902.16
2018-11-02T13:21:53.721Z,95896.61
2018-11-02T13:24:20.315Z,95900.16
2018-11-02T13:26:46.899Z,95908.26
2018-11-02T13:29:13.666Z,95906.34
2018-11-02T13:31:43.447Z,95903.14
2018-11-02T13:34:10.191Z,95908.72
2018-11-02T13:36:37.096Z,95903.17
2018-11-02T13:39:03.652Z,95905.55
2018-11-02T13:41:30.392Z,95900.41
2018-11-02T13:43:57.204Z,95907.99
2018-11-02T13:46:23.889Z,95910.75
2018-11-02T13:48:52.465Z,95906.94
2018-11-02T13:51:19.136Z,95908.34
2018-11-02T13:53:45.904Z,95903.81
2018-11-02T13:56:12.652Z,95910.06
2018-11-02T13:58:39.292Z,95906.47
2018-11-02T14:01:06.303Z,95913.07
2018-11-02T14:03:32.909Z,95913.95
2018-11-02T14:05:59.687Z,95916.80
2018-11-02T14:08:26.365Z,95921.70
2018-11-02T14:10:53.198Z,95919.38
2018-11-02T14:13:19.823Z,95918.95
2018-11-02T14:15:46.517Z,95914.63
2018-11-02T14:18:13.207Z,95917.17
2018-11-02T14:20:39.897Z,95920.78
2018-11-02T14:23:06.746Z,95922.34
2018-11-02T14:25:35.727Z,95923.86
2018-11-02T14:28:02.441Z,95920.60
2018-11-02T14:30:29.185Z,95928.09
2018-11-02T14:32:56.207Z,95933.84
2018-11-02T14:35:23.900Z,95925.02
2018-11-02T14:37:50.648Z,95932.31
2018-11-02T14:40:17.298Z,95928.84
2018-11-02T14:42:43.998Z,95928.19
2018-11-02T14:45:10.701Z,95929.58
2018-11-02T14:47:37.384Z,95926.32
2018-11-02T14:50:04.101Z,95925.35
2018-11-02T14:52:33.172Z,95928.92
2018-11-02T14:54:57.633Z,95929.61
2018-11-02T14:57:24.345Z,95931.09
2018-11-02T14:59:52.617Z,95930.27
2018-11-02T15:02:21.494Z,95935.92
2018-11-02T15:04:46.676Z,95933.67
2018-11-02T15:07:13.321Z,95937.13
2018-11-02T15:09:40.098Z,95935.86
2018-11-02T15:12:06.777Z,95942.96
2018-11-02T15:14:33.493Z,95941.22
2018-11-02T15:17:00.277Z,95941.25
2018-11-02T15:19:27.007Z,95946.36
2018-11-02T15:21:53.758Z,95941.44
2018-11-02T15:24:20.497Z,95934.80
2018-11-02T15:26:47.145Z,95940.87
2018-11-02T15:29:13.979Z,95937.73
2018-11-02T15:31:40.691Z,95940.41
2018-11-02T15:34:07.431Z,95945.77
2018-11-02T15:36:34.112Z,95951.22
2018-11-02T15:39:00.901Z,95946.94
2018-11-02T15:41:27.766Z,95946.43
2018-11-02T15:43:56.126Z,95951.50
2018-11-02T15:46:21.245Z,95948.30
2018-11-02T15:48:47.934Z,95945.90
2018-11-02T15:51:14.933Z,95950.01
2018-11-02T15:53:41.775Z,95954.29
2018-11-02T15:56:08.439Z,95953.48
2018-11-02T15:58:36.340Z,95957.16
2018-11-02T16:01:04.810Z,95960.50
2018-11-02T16:03:31.541Z,95969.84
2018-11-02T16:05:58.231Z,95973.66
2018-11-02T16:08:24.846Z,95973.13
2018-11-02T16:10:51.604Z,95979.29
2018-11-02T16:13:18.305Z,95980.96
2018-11-02T16:15:44.911Z,95976.38
2018-11-02T16:18:11.700Z,95977.11
2018-11-02T16:20:39.697Z,95986.49
2018-11-02T16:23:04.995Z,95985.63
2018-11-02T16:25:31.746Z,95993.14
2018-11-02T16:27:59.483Z,95998.11
2018-11-02T16:30:26.134Z,95995.45
2018-11-02T16:32:56.191Z,96002.66
2018-11-02T16:35:22.906Z,96002.48
2018-11-02T16:37:49.601Z,96002.48
2018-11-02T16:40:16.287Z,96006.23
2018-11-02T16:42:42.942Z,96006.39
2018-11-02T16:45:09.580Z,96008.42
2018-11-02T16:47:36.348Z,96017.17
2018-11-02T16:50:02.986Z,96011.98
2018-11-02T16:52:29.617Z,96014.13
2018-11-02T16:54:56.307Z,96021.03
2018-11-02T16:57:23.028Z,96020.59
2018-11-02T16:59:52.208Z,96016.93
2018-11-02T17:02:16.547Z,96025.14
2018-11-02T17:04:43.283Z,96023.41
2018-11-02T17:07:10.002Z,96027.72
2018-11-02T17:09:36.679Z,96027.31
2018-11-02T17:12:03.348Z,96028.44
2018-11-02T17:14:30.194Z,96029.47
2018-11-02T17:16:56.862Z,96041.11
2018-11-02T17:19:23.536Z,96042.65
2018-11-02T17:21:50.314Z,96038.72
2018-11-02T17:24:16.947Z,96039.75
2018-11-02T17:26:43.639Z,96046.22
2018-11-02T17:29:10.422Z,96042.94
2018-11-02T17:31:37.172Z,96050.27
2018-11-02T17:34:03.979Z,96051.30
2018-11-02T17:36:32.010Z,96058.91
2018-11-02T17:38:57.355Z,96050.29
2018-11-02T17:41:26.438Z,96055.48
2018-11-02T17:43:54.530Z,96053.60
2018-11-02T17:46:19.790Z,96054.09
2018-11-02T17:48:46.520Z,96057.02
2018-11-02T17:51:13.268Z,96049.30
2018-11-02T17:53:40.015Z,96057.39
2018-11-02T17:56:06.715Z,96046.89
2018-11-02T17:58:33.447Z,96045.49
2018-11-02T18:01:00.252Z,96053.73
2018-11-02T18:03:26.913Z,96052.61
2018-11-02T18:05:53.812Z,96055.67
2018-11-02T18:08:22.089Z,96060.86
2018-11-02T18:10:47.471Z,96052.89
2018-11-02T18:13:14.249Z,96054.42
2018-11-02T18:15:40.929Z,96054.79
2018-11-02T18:18:07.610Z,96057.95
2018-11-02T18:20:35.283Z,96061.01
2018-11-02T18:23:01.039Z,96058.35
2018-11-02T18:25:27.792Z,96067.59
2018-11-02T18:27:54.499Z,96067.23
2018-11-02T18:30:21.166Z,96072.29
2018-11-02T18:32:49.126Z,96076.48
2018-11-02T18:35:14.594Z,96078.13
2018-11-02T18:37:41.256Z,96073.70
2018-11-02T18:40:07.973Z,96074.22
2018-11-02T18:42:34.699Z,96075.35
2018-11-02T18:45:01.406Z,96080.92
2018-11-02T18:47:28.173Z,96082.56
2018-11-02T18:49:55.787Z,96086.75
2018-11-02T18:52:22.492Z,96087.01
2018-11-02T18:54:49.170Z,96087.77
2018-11-02T18:57:15.903Z,96089.27
2018-11-02T18:59:45.287Z,96097.09
2018-11-02T19:02:13.860Z,96091.80
2018-11-02T19:04:38.726Z,96100.02
2018-11-02T19:07:05.370Z,96094.20
2018-11-02T19:09:32.177Z,96099.13
2018-11-02T19:11:58.902Z,96102.93
2018-11-02T19:14:25.663Z,96100.14
2018-11-02T19:16:52.440Z,96113.05
2018-11-02T19:19:19.135Z,96100.15
2018-11-02T19:21:47.038Z,96114.95
2018-11-02T19:24:13.785Z,96115.19
2018-11-02T19:26:40.500Z,96116.10
2018-11-02T19:29:07.187Z,96114.30
2018-11-02T19:31:33.856Z,96112.80
2018-11-02T19:34:00.662Z,96120.25
2018-11-02T19:36:27.221Z,96116.95
2018-11-02T19:38:53.982Z,96121.79
2018-11-02T19:41:20.618Z,96127.71
2018-11-02T19:43:47.255Z,96129.87
2018-11-02T19:46:13.970Z,96131.89
2018-11-02T19:48:40.631Z,96142.27
2018-11-02T19:51:07.290Z,96127.58
2018-11-02T19:53:34.097Z,96127.97
2018-11-02T19:56:00.700Z,96131.27
2018-11-02T19:58:27.399Z,96140.49
2018-11-02T20:00:54.071Z,96143.38
2018-11-02T20:03:20.750Z,96144.28
2018-11-02T20:05:47.402Z,96147.70
2018-11-02T20:08:14.127Z,96147.17
2018-11-02T20:10:40.777Z,96143.87
2018-11-02T20:13:07.485Z,96146.17
2018-11-02T20:15:34.186Z,96141.99
2018-11-02T20:18:00.821Z,96143.36
2018-11-02T20:20:27.575Z,96148.16
2018-11-02T20:22:54.299Z,96151.08
2018-11-02T20:25:22.741Z,96147.39
2018-11-02T20:27:47.670Z,96146.63
2018-11-02T20:30:14.399Z,96147.63
2018-11-02T20:32:41.115Z,96139.67
2018-11-02T20:35:07.752Z,96144.47
2018-11-02T20:37:34.428Z,96142.97
2018-11-02T20:40:01.174Z,96145.09
2018-11-02T20:42:27.943Z,96142.91
2018-11-02T20:44:54.603Z,96147.84
2018-11-02T20:47:21.283Z,96150.17
2018-11-02T20:49:47.999Z,96149.86
2018-11-02T20:52:14.695Z,96140.51
2018-11-02T20:54:41.440Z,96147.46
2018-11-02T20:57:09.439Z,96149.09
2018-11-02T20:59:34.848Z,96150.48
2018-11-02T21:02:01.488Z,96142.77
2018-11-02T21:04:28.174Z,96146.03
2018-11-02T21:06:54.809Z,96143.87
2018-11-02T21:09:21.891Z,96150.69
2018-11-02T21:11:48.239Z,96151.31
2018-11-02T21:14:15.088Z,96146.66
2018-11-02T21:16:44.969Z,96149.58
2018-11-02T21:19:11.689Z,96152.08
2018-11-02T21:21:38.402Z,96149.39
2018-11-02T21:24:05.060Z,96150.93
2018-11-02T21:26:31.777Z,96144.73
2018-11-02T21:28:58.471Z,96151.68
2018-11-02T21:31:25.179Z,96151.93
2018-11-02T21:33:52.114Z,96153.95
2018-11-02T21:36:21.316Z,96159.50
2018-11-02T21:38:45.560Z,96157.34
2018-11-02T21:41:12.153Z,96159.11
2018-11-02T21:43:38.814Z,96164.52
2018-11-02T21:46:05.450Z,96162.13
2018-11-02T21:48:32.175Z,96154.66
2018-11-02T21:50:58.885Z,96159.11
2018-11-02T21:53:25.534Z,96155.80
2018-11-02T21:55:52.291Z,96159.34
2018-11-02T21:58:19.075Z,96150.72
2018-11-02T22:00:45.780Z,96158.05
2018-11-02T22:03:12.444Z,96160.22
2018-11-02T22:05:39.089Z,96167.54
2018-11-02T22:08:05.829Z,96161.70
2018-11-02T22:10:32.466Z,96161.31
2018-11-02T22:12:59.159Z,96157.91
2018-11-02T22:15:25.862Z,96157.03
2018-11-02T22:17:52.611Z,96156.36
2018-11-02T22:20:22.303Z,96155.08
2018-11-02T22:22:48.934Z,96147.77
2018-11-02T22:25:15.706Z,96151.05
2018-11-02T22:27:42.341Z,96149.80
2018-11-02T22:30:09.048Z,96150.17
2018-11-02T22:32:35.695Z,96151.28
2018-11-02T22:35:05.263Z,96159.23
2018-11-02T22:37:31.921Z,96156.70
2018-11-02T22:39:58.659Z,96154.44
2018-11-02T22:42:28.205Z,96148.48
2018-11-02T22:44:54.888Z,96153.42
2018-11-02T22:47:21.551Z,96151.52
2018-11-02T22:49:48.196Z,96143.70
2018-11-02T22:52:14.887Z,96146.19
2018-11-02T22:54:41.623Z,96146.44
2018-11-02T22:57:08.632Z,96151.50
2018-11-02T22:59:35.300Z,96151.73
2018-11-02T23:02:02.031Z,96147.71
2018-11-02T23:04:28.731Z,96140.86
2018-11-02T23:06:55.433Z,96145.56
2018-11-02T23:09:24.189Z,96147.04
2018-11-02T23:11:48.823Z,96136.55
2018-11-02T23:14:15.461Z,96137.45
2018-11-02T23:16:42.096Z,96136.78
2018-11-02T23:19:08.808Z,96144.49
2018-11-02T23:21:35.491Z,96138.31
2018-11-02T23:24:02.182Z,96143.97
2018-11-02T23:26:28.910Z,96140.67
2018-11-02T23:28:55.610Z,96142.58
2018-11-02T23:31:22.291Z,96146.22
2018-11-02T23:33:49.043Z,96143.44
2018-11-02T23:36:15.693Z,96141.30
2018-11-02T23:38:42.377Z,96135.59
2018-11-02T23:41:09.096Z,96138.89
2018-11-02T23:43:35.731Z,96144.41
2018-11-02T23:46:02.460Z,96138.36
2018-11-02T23:48:29.119Z,96141.61
2018-11-02T23:50:55.775Z,96147.95
2018-11-02T23:53:22.406Z,96143.30
2018-11-02T23:55:49.106Z,96136.72
2018-11-02T23:58:15.899Z,96148.70
